Time;durP1;ratioP1;P1;durP2;ratioP2;P2;SDS_P1;SDS_P2;PMS_P1;PMS_P2;Temp;Humidity;BMP_temperature;BMP_pressure;BME280_temperature;BME280_humidity;BME280_pressure;Samples;Min_cycle;Max_cycle;Signal;HPM_P1;HPM_P2
2021/10/25 00:02:10;;;;;;;6.47;3.53;;;7.30;99.90;;;;;;4996338;28;20237;-69
2021/10/25 00:04:39;;;;;;;4.17;3.70;;;7.20;99.90;;;;;;4998356;28;20867;-70
2021/10/25 00:07:07;;;;;;;4.97;3.23;;;7.30;99.90;;;;;;4999087;28;20579;-70
2021/10/25 00:09:35;;;;;;;6.07;3.77;;;7.30;99.90;;;;;;5001026;28;20268;-70
2021/10/25 00:12:05;;;;;;;6.03;3.97;;;7.20;99.90;;;;;;4997154;28;20712;-70
2021/10/25 00:14:34;;;;;;;6.20;3.33;;;7.20;99.90;;;;;;4996274;28;20300;-70
2021/10/25 00:17:03;;;;;;;5.03;3.77;;;7.20;99.90;;;;;;4994551;28;20300;-67
2021/10/25 00:19:31;;;;;;;4.93;3.43;;;7.20;99.90;;;;;;4994461;28;20250;-69
2021/10/25 00:21:59;;;;;;;5.87;3.57;;;7.20;99.90;;;;;;4995648;28;20728;-70
2021/10/25 00:24:27;;;;;;;5.13;3.53;;;7.20;99.90;;;;;;4990908;28;20310;-70
2021/10/25 00:26:56;;;;;;;4.90;3.20;;;7.20;99.90;;;;;;4994321;28;20241;-70
2021/10/25 00:29:24;;;;;;;5.60;3.50;;;7.20;99.90;;;;;;4994095;28;20240;-69
2021/10/25 00:31:53;;;;;;;6.20;3.80;;;7.20;99.90;;;;;;4991070;28;20327;-70
2021/10/25 00:34:22;;;;;;;5.13;3.63;;;7.20;99.90;;;;;;4992477;28;20287;-69
2021/10/25 00:36:51;;;;;;;6.07;3.80;;;7.20;99.90;;;;;;4989054;28;20238;-70
2021/10/25 00:39:19;;;;;;;5.70;3.60;;;7.20;99.90;;;;;;4981722;28;20230;-69
2021/10/25 00:41:48;;;;;;;8.00;3.77;;;7.20;99.90;;;;;;4993066;28;20320;-70
2021/10/25 00:44:17;;;;;;;5.37;3.47;;;7.10;99.90;;;;;;4994302;28;20267;-70
2021/10/25 00:46:45;;;;;;;4.13;3.47;;;7.10;99.90;;;;;;4988854;28;20264;-67
2021/10/25 00:49:14;;;;;;;4.63;3.40;;;7.10;99.90;;;;;;4999954;28;20736;-70
2021/10/25 00:51:43;;;;;;;5.17;3.37;;;7.10;99.90;;;;;;4990454;28;20242;-70
2021/10/25 00:54:12;;;;;;;5.43;3.43;;;7.00;99.90;;;;;;4991653;28;20237;-70
2021/10/25 00:56:43;;;;;;;5.30;4.03;;;7.00;99.90;;;;;;4991367;28;20280;-68
2021/10/25 00:59:11;;;;;;;5.67;3.60;;;7.00;99.90;;;;;;4994128;28;20241;-70
2021/10/25 01:01:39;;;;;;;7.43;3.70;;;7.00;99.90;;;;;;4994694;28;20253;-69
2021/10/25 01:04:09;;;;;;;4.60;3.73;;;7.00;99.90;;;;;;4992289;28;20243;-70
2021/10/25 01:06:40;;;;;;;6.43;3.63;;;7.00;99.90;;;;;;4989321;28;20273;-70
2021/10/25 01:09:08;;;;;;;6.73;3.50;;;7.00;99.90;;;;;;4996378;28;20601;-70
2021/10/25 01:11:39;;;;;;;5.63;3.57;;;7.00;99.90;;;;;;4985159;28;20242;-69
2021/10/25 01:14:09;;;;;;;4.83;3.23;;;7.00;99.90;;;;;;4995516;28;20630;-70
2021/10/25 01:16:37;;;;;;;6.67;3.43;;;7.00;99.90;;;;;;4993269;28;20327;-69
2021/10/25 01:19:06;;;;;;;5.37;3.60;;;7.00;99.90;;;;;;4971854;28;20293;-69
2021/10/25 01:21:36;;;;;;;5.73;3.77;;;7.00;99.90;;;;;;4976478;28;20824;-69
2021/10/25 01:24:05;;;;;;;5.43;3.90;;;7.00;99.90;;;;;;4996740;28;20300;-70
2021/10/25 01:26:33;;;;;;;5.17;3.73;;;7.00;99.90;;;;;;4974036;28;20287;-69
2021/10/25 01:29:01;;;;;;;4.73;3.67;;;6.90;99.90;;;;;;5003607;28;20693;-70
2021/10/25 01:31:30;;;;;;;6.67;3.90;;;6.90;99.90;;;;;;4985733;28;20268;-70
2021/10/25 01:33:59;;;;;;;8.23;3.97;;;6.90;99.90;;;;;;4990318;28;20624;-70
2021/10/25 01:36:32;;;;;;;6.87;4.63;;;6.90;99.90;;;;;;4978314;28;20229;-70
2021/10/25 01:39:02;;;;;;;6.07;4.03;;;6.90;99.90;;;;;;4977319;28;20317;-69
2021/10/25 01:41:30;;;;;;;6.93;4.20;;;6.90;99.90;;;;;;4975516;28;20661;-70
2021/10/25 01:44:00;;;;;;;5.47;3.80;;;6.90;99.90;;;;;;4975192;28;20241;-70
2021/10/25 01:46:28;;;;;;;5.43;3.63;;;6.90;99.90;;;;;;4982018;28;20242;-70
2021/10/25 01:48:56;;;;;;;4.23;3.30;;;6.80;99.90;;;;;;4992446;28;20669;-70
2021/10/25 01:51:25;;;;;;;4.60;3.50;;;6.80;99.90;;;;;;4990123;28;20609;-69
2021/10/25 01:53:54;;;;;;;6.00;3.77;;;6.80;99.90;;;;;;4970369;28;20242;-70
2021/10/25 01:56:24;;;;;;;4.27;3.63;;;6.80;99.90;;;;;;4975835;28;20229;-69
2021/10/25 01:58:53;;;;;;;5.73;4.17;;;6.80;99.90;;;;;;4971072;28;20254;-70
2021/10/25 02:01:23;;;;;;;4.57;3.43;;;6.80;99.90;;;;;;4973526;28;20584;-70
2021/10/25 02:03:52;;;;;;;5.00;3.73;;;6.80;99.90;;;;;;4977018;28;20241;-69
2021/10/25 02:06:26;;;;;;;6.63;4.33;;;6.80;99.90;;;;;;4993396;28;20257;-70
2021/10/25 02:08:55;;;;;;;7.10;4.27;;;6.80;99.90;;;;;;4971513;28;20265;-70
2021/10/25 02:11:26;;;;;;;7.73;4.03;;;6.80;99.90;;;;;;4991060;28;20716;-69
2021/10/25 02:13:58;;;;;;;5.03;4.20;;;6.80;99.90;;;;;;4983495;28;20250;-70
2021/10/25 02:16:29;;;;;;;5.10;3.90;;;6.80;99.90;;;;;;4970406;28;20308;-70
2021/10/25 02:18:57;;;;;;;5.60;3.73;;;6.80;99.90;;;;;;4987548;28;20594;-70
2021/10/25 02:21:33;;;;;;;7.73;4.40;;;6.80;99.90;;;;;;4985140;28;20260;-70
2021/10/25 02:24:01;;;;;;;5.93;4.00;;;6.80;99.90;;;;;;4971969;28;20288;-71
2021/10/25 02:26:31;;;;;;;5.83;3.97;;;6.80;99.90;;;;;;4984524;28;20324;-70
2021/10/25 02:28:59;;;;;;;5.97;4.03;;;6.80;99.90;;;;;;4981471;28;20254;-70
2021/10/25 02:31:27;;;;;;;5.87;4.10;;;6.80;99.90;;;;;;4992200;28;20234;-69
2021/10/25 02:33:55;;;;;;;7.07;4.50;;;6.80;99.90;;;;;;4977922;28;20323;-69
2021/10/25 02:36:23;;;;;;;6.50;4.13;;;6.80;99.90;;;;;;4973759;28;20260;-69
2021/10/25 02:38:52;;;;;;;4.70;4.20;;;6.80;99.90;;;;;;4992368;28;20320;-70
2021/10/25 02:41:21;;;;;;;5.70;4.30;;;6.80;99.90;;;;;;4976909;28;20233;-70
2021/10/25 02:43:50;;;;;;;5.90;4.30;;;6.80;99.90;;;;;;4971942;28;20772;-70
2021/10/25 02:46:18;;;;;;;6.03;4.27;;;6.80;99.90;;;;;;4995459;28;20260;-70
2021/10/25 02:48:48;;;;;;;8.67;4.37;;;6.70;99.90;;;;;;4969999;28;20721;-71
2021/10/25 02:51:19;;;;;;;7.13;3.73;;;6.70;99.90;;;;;;4972674;28;20234;-71
2021/10/25 02:53:50;;;;;;;8.10;4.17;;;6.70;99.90;;;;;;4974712;28;20594;-70
2021/10/25 02:56:20;;;;;;;5.30;4.10;;;6.70;99.90;;;;;;4977011;28;20608;-70
2021/10/25 02:58:53;;;;;;;6.30;4.13;;;6.70;99.90;;;;;;4971501;28;20653;-69
2021/10/25 03:01:21;;;;;;;4.80;4.13;;;6.80;99.90;;;;;;4975022;28;20237;-70
2021/10/25 03:03:49;;;;;;;6.57;4.27;;;6.80;99.90;;;;;;4965202;28;20241;-68
2021/10/25 03:06:23;;;;;;;6.93;4.23;;;6.70;99.90;;;;;;4988323;28;20245;-70
2021/10/25 03:08:52;;;;;;;5.00;4.27;;;6.70;99.90;;;;;;4990292;28;20603;-70
2021/10/25 03:11:20;;;;;;;5.97;4.40;;;6.70;99.90;;;;;;4977427;28;20229;-70
2021/10/25 03:13:53;;;;;;;6.33;4.20;;;6.60;99.90;;;;;;4984184;28;20520;-68
2021/10/25 03:16:26;;;;;;;6.77;4.20;;;6.60;99.90;;;;;;4971769;28;20244;-69
2021/10/25 03:18:54;;;;;;;6.07;4.50;;;6.60;99.90;;;;;;4993988;28;20233;-70
2021/10/25 03:21:23;;;;;;;5.33;4.00;;;6.60;99.90;;;;;;4994063;28;20245;-70
2021/10/25 03:23:52;;;;;;;9.87;4.60;;;6.60;99.90;;;;;;4972559;28;20261;-70
2021/10/25 03:26:20;;;;;;;7.17;4.40;;;6.60;99.90;;;;;;4970140;28;20288;-70
2021/10/25 03:28:49;;;;;;;5.20;4.00;;;6.60;99.90;;;;;;4971077;28;20237;-70
2021/10/25 03:31:19;;;;;;;5.73;4.00;;;6.60;99.90;;;;;;4977016;28;20724;-70
2021/10/25 03:33:48;;;;;;;6.97;4.17;;;6.60;99.90;;;;;;4971229;28;20238;-70
2021/10/25 03:36:30;;;;;;;6.07;4.40;;;6.60;99.90;;;;;;4980496;28;20248;-70
2021/10/25 03:38:59;;;;;;;4.73;4.13;;;6.60;99.90;;;;;;4992243;28;20268;-70
2021/10/25 03:41:32;;;;;;;7.23;4.13;;;6.50;99.90;;;;;;4958328;28;20673;-70
2021/10/25 03:44:04;;;;;;;4.80;4.10;;;6.50;99.90;;;;;;4980193;28;20229;-68
2021/10/25 03:46:39;;;;;;;5.17;4.23;;;6.50;99.90;;;;;;4988660;28;20500;-70
2021/10/25 03:49:11;;;;;;;5.57;4.30;;;6.50;99.90;;;;;;4988854;28;20292;-70
2021/10/25 03:51:47;;;;;;;6.77;4.43;;;6.50;99.90;;;;;;4966317;28;20248;-70
2021/10/25 03:54:33;;;;;;;8.03;4.30;;;6.50;99.90;;;;;;4994505;28;20229;-70
2021/10/25 04:25:54;;;;;;;7.00;5.03;;;6.40;99.90;;;;;;5066708;28;20231;-69
2021/10/25 04:28:23;;;;;;;6.83;4.83;;;6.40;99.90;;;;;;5077819;28;20237;-70
2021/10/25 04:30:56;;;;;;;7.77;5.33;;;6.40;99.90;;;;;;5074899;28;21021;-69
2021/10/25 04:33:29;;;;;;;5.73;4.90;;;6.30;99.90;;;;;;5053609;28;20292;-69
2021/10/25 04:36:04;;;;;;;8.47;4.63;;;6.30;99.90;;;;;;5065927;28;20229;-69
2021/10/25 04:38:55;;;;;;;6.93;4.90;;;6.30;99.90;;;;;;5058863;28;20613;-70
2021/10/25 04:41:23;;;;;;;7.13;5.00;;;6.40;99.90;;;;;;5061758;28;20507;-68
2021/10/25 04:43:52;;;;;;;7.83;4.83;;;6.40;99.90;;;;;;5063146;28;20259;-70
2021/10/25 04:46:20;;;;;;;7.63;5.53;;;6.30;99.90;;;;;;5061339;28;20235;-69
2021/10/25 04:48:50;;;;;;;6.13;4.87;;;6.30;99.90;;;;;;5064561;28;20231;-69
2021/10/25 04:51:41;;;;;;;7.67;5.10;;;6.40;99.90;;;;;;5070008;28;20601;-69
2021/10/25 04:54:17;;;;;;;6.50;5.47;;;6.40;99.90;;;;;;5065772;28;20246;-70
2021/10/25 04:56:53;;;;;;;7.50;5.00;;;6.40;99.90;;;;;;5072253;28;20233;-70
2021/10/25 04:59:23;;;;;;;5.57;4.30;;;6.30;99.90;;;;;;5067165;28;20237;-69
2021/10/25 05:01:51;;;;;;;8.03;4.83;;;6.30;99.90;;;;;;5071189;28;20227;-70
2021/10/25 05:04:21;;;;;;;6.67;5.13;;;6.40;99.90;;;;;;5065278;28;20584;-69
2021/10/25 05:06:49;;;;;;;8.20;5.27;;;6.30;99.90;;;;;;5067472;28;20259;-70
2021/10/25 05:09:18;;;;;;;5.80;5.00;;;6.30;99.90;;;;;;5065456;28;20606;-70
2021/10/25 05:11:48;;;;;;;6.10;4.90;;;6.30;99.90;;;;;;5055390;28;20236;-70
2021/10/25 05:14:16;;;;;;;7.47;5.43;;;6.30;99.90;;;;;;5055182;28;20259;-69
2021/10/25 05:16:49;;;;;;;8.73;5.30;;;6.30;99.90;;;;;;5051842;28;20251;-68
2021/10/25 05:19:17;;;;;;;6.20;5.17;;;6.30;99.90;;;;;;5053661;28;20239;-70
2021/10/25 05:21:51;;;;;;;7.97;5.60;;;6.20;99.90;;;;;;5052988;28;20243;-69
2021/10/25 05:24:20;;;;;;;8.27;5.47;;;6.20;99.90;;;;;;5055639;28;20224;-69
2021/10/25 05:26:48;;;;;;;9.67;6.80;;;6.20;99.90;;;;;;5057869;28;20314;-69
2021/10/25 05:29:16;;;;;;;9.20;6.33;;;6.20;99.90;;;;;;5057354;28;20293;-69
2021/10/25 05:31:45;;;;;;;7.53;6.40;;;6.20;99.90;;;;;;5056046;28;21291;-70
2021/10/25 05:34:13;;;;;;;7.93;6.70;;;6.20;99.90;;;;;;5052789;28;20231;-69
2021/10/25 05:36:42;;;;;;;9.07;7.40;;;6.20;99.90;;;;;;5059521;28;20638;-69
2021/10/25 05:39:11;;;;;;;10.33;7.37;;;6.20;99.90;;;;;;5052657;28;20474;-68
2021/10/25 05:41:41;;;;;;;11.23;7.27;;;6.20;99.90;;;;;;5054243;28;20239;-69
2021/10/25 05:44:09;;;;;;;12.07;7.83;;;6.20;99.90;;;;;;5059003;28;20997;-69
2021/10/25 05:46:38;;;;;;;11.60;7.40;;;6.20;99.90;;;;;;5048828;28;20485;-68
2021/10/25 05:49:07;;;;;;;10.23;6.57;;;6.20;99.90;;;;;;5034488;28;20923;-70
2021/10/25 05:51:35;;;;;;;10.43;6.63;;;6.20;99.90;;;;;;5032447;28;20326;-68
2021/10/25 05:54:05;;;;;;;9.17;6.13;;;6.30;99.90;;;;;;5029951;28;20238;-69
2021/10/25 05:56:34;;;;;;;9.47;6.30;;;6.30;99.90;;;;;;5030178;28;20242;-69
2021/10/25 05:59:04;;;;;;;7.87;5.90;;;6.20;99.90;;;;;;5031564;28;20259;-67
2021/10/25 06:01:39;;;;;;;6.70;6.00;;;6.20;99.90;;;;;;5028648;28;20349;-68
2021/10/25 06:04:21;;;;;;;10.40;5.93;;;6.10;99.90;;;;;;5028249;28;21096;-68
2021/10/25 06:07:09;;;;;;;8.17;6.23;;;6.20;99.90;;;;;;5030085;28;20251;-67
2021/10/25 06:09:37;;;;;;;9.83;6.10;;;6.20;99.90;;;;;;5028294;28;20244;-68
2021/10/25 06:12:10;;;;;;;11.80;7.67;;;6.20;99.90;;;;;;5026156;28;20564;-67
2021/10/25 06:14:55;;;;;;;10.63;7.80;;;6.30;99.90;;;;;;5028568;28;21157;-67
2021/10/25 06:17:36;;;;;;;9.00;6.97;;;6.20;99.90;;;;;;5027121;28;20745;-70
2021/10/25 06:20:12;;;;;;;7.07;6.37;;;6.20;99.90;;;;;;5027485;28;20338;-68
2021/10/25 06:22:41;;;;;;;8.07;6.10;;;6.20;99.90;;;;;;5023186;28;20251;-67
2021/10/25 06:25:12;;;;;;;6.87;6.10;;;6.10;99.90;;;;;;5028127;28;20616;-66
2021/10/25 06:27:48;;;;;;;8.40;6.17;;;6.10;99.90;;;;;;5026826;28;20478;-69
2021/10/25 06:30:17;;;;;;;9.60;6.37;;;6.10;99.90;;;;;;5029347;28;20238;-69
2021/10/25 06:32:48;;;;;;;7.93;6.87;;;6.10;99.90;;;;;;5025220;28;21122;-68
2021/10/25 06:35:31;;;;;;;9.40;6.63;;;6.10;99.90;;;;;;5026847;28;20254;-67
2021/10/25 06:38:42;;;;;;;8.70;6.70;;;6.10;99.90;;;;;;5028263;28;20250;-67
2021/10/25 06:41:11;;;;;;;9.83;6.60;;;6.10;99.90;;;;;;5023979;28;20734;-67
2021/10/25 06:43:40;;;;;;;8.23;6.37;;;6.20;99.90;;;;;;5026392;28;21364;-69
2021/10/25 06:46:14;;;;;;;8.77;6.83;;;6.20;99.90;;;;;;5024192;28;20241;-69
2021/10/25 06:48:44;;;;;;;7.87;6.90;;;6.20;99.90;;;;;;5025369;28;20248;-68
2021/10/25 06:51:14;;;;;;;10.17;7.50;;;6.20;99.90;;;;;;5023221;28;20238;-69
2021/10/25 06:53:45;;;;;;;8.57;6.83;;;6.20;99.90;;;;;;5028145;28;21489;-67
2021/10/25 06:56:15;;;;;;;10.33;7.23;;;6.20;99.90;;;;;;5058041;28;20231;-68
2021/10/25 06:58:45;;;;;;;9.57;7.43;;;6.20;99.90;;;;;;5026392;28;20907;-67
2021/10/25 07:01:13;;;;;;;9.33;7.77;;;6.20;99.90;;;;;;5029431;28;20735;-69
2021/10/25 07:03:44;;;;;;;13.40;8.33;;;6.30;99.90;;;;;;5027125;28;20232;-68
2021/10/25 07:06:14;;;;;;;11.17;8.10;;;6.30;99.90;;;;;;5031642;28;20243;-66
2021/10/25 07:08:45;;;;;;;10.63;8.50;;;6.30;99.90;;;;;;5028806;28;20486;-66
2021/10/25 07:11:15;;;;;;;11.27;8.40;;;6.30;99.90;;;;;;5046026;28;20246;-69
2021/10/25 07:13:47;;;;;;;9.37;7.53;;;6.30;99.90;;;;;;5029745;28;20306;-69
2021/10/25 07:16:21;;;;;;;10.67;7.23;;;6.40;99.90;;;;;;5026635;28;20236;-69
2021/10/25 07:27:49;;;;;;;8.30;6.43;;;6.70;99.90;;;;;;5046851;28;20715;-65
2021/10/25 08:05:14;;;;;;;11.43;6.77;;;8.30;99.90;;;;;;5029242;28;20248;-67
2021/10/25 08:07:50;;;;;;;7.30;6.33;;;8.30;99.90;;;;;;5034751;28;20242;-66
2021/10/25 08:10:27;;;;;;;9.27;6.50;;;8.40;99.90;;;;;;5033173;28;20232;-66
2021/10/25 08:13:02;;;;;;;7.80;7.00;;;8.50;99.90;;;;;;5031994;28;20757;-67
2021/10/25 08:15:37;;;;;;;8.73;7.00;;;8.60;99.90;;;;;;5032980;28;20243;-65
2021/10/25 08:18:13;;;;;;;8.40;6.83;;;8.80;99.90;;;;;;5032867;28;20290;-68
2021/10/25 08:20:44;;;;;;;8.47;7.13;;;8.90;99.90;;;;;;5029951;28;20824;-66
2021/10/25 08:23:13;;;;;;;9.83;7.03;;;9.10;99.90;;;;;;5033663;28;20588;-67
2021/10/25 08:25:42;;;;;;;8.43;6.83;;;9.20;99.90;;;;;;5033123;28;20576;-68
2021/10/25 08:28:15;;;;;;;8.87;7.03;;;9.20;99.90;;;;;;5032453;28;20669;-67
2021/10/25 08:30:44;;;;;;;12.57;7.67;;;9.40;99.90;;;;;;5030210;28;20267;-67
2021/10/25 08:33:28;;;;;;;9.60;6.70;;;9.60;99.90;;;;;;5033710;28;21115;-68
2021/10/25 08:36:09;;;;;;;10.50;7.20;;;9.80;99.90;;;;;;5033130;28;20695;-67
2021/10/25 08:41:54;;;;;;;8.90;7.20;;;9.70;99.90;;;;;;5042542;28;20671;-66
2021/10/25 08:44:23;;;;;;;9.37;7.10;;;9.90;99.90;;;;;;5044501;28;20238;-67
2021/10/25 08:46:56;;;;;;;8.77;7.00;;;10.10;99.90;;;;;;5049054;28;20290;-66
2021/10/25 08:49:29;;;;;;;9.10;7.57;;;10.20;99.90;;;;;;5050241;28;21181;-66
2021/10/25 08:52:00;;;;;;;10.10;7.23;;;10.20;99.90;;;;;;5046305;28;20348;-66
2021/10/25 08:54:33;;;;;;;10.30;7.40;;;10.30;99.90;;;;;;5046654;28;20234;-68
2021/10/25 08:57:02;;;;;;;8.70;7.03;;;10.30;99.90;;;;;;5047181;28;20239;-67
2021/10/25 08:59:34;;;;;;;10.67;7.53;;;10.40;99.90;;;;;;5046662;28;20231;-68
2021/10/25 09:02:07;;;;;;;9.97;7.80;;;10.40;99.90;;;;;;5045302;28;20247;-68
2021/10/25 09:05:00;;;;;;;10.73;7.53;;;10.50;99.90;;;;;;5046357;28;20231;-68
2021/10/25 09:07:30;;;;;;;8.33;6.87;;;10.70;99.90;;;;;;5046402;28;20243;-67
2021/10/25 09:10:03;;;;;;;10.50;7.53;;;10.80;99.90;;;;;;5047842;28;20596;-67
2021/10/25 09:12:33;;;;;;;8.57;7.10;;;10.90;99.90;;;;;;5043886;28;20911;-67
2021/10/25 09:15:01;;;;;;;8.20;7.30;;;10.90;99.90;;;;;;5039075;28;20238;-68
2021/10/25 09:17:42;;;;;;;10.40;7.33;;;11.10;99.90;;;;;;5036304;28;20238;-67
2021/10/25 09:20:22;;;;;;;10.20;7.23;;;11.00;99.90;;;;;;5035888;28;20231;-66
2021/10/25 09:23:08;;;;;;;8.20;7.27;;;10.90;99.90;;;;;;5032803;28;20854;-67
2021/10/25 09:25:40;;;;;;;10.53;7.37;;;10.70;99.90;;;;;;5037446;28;20239;-67
2021/10/25 09:28:20;;;;;;;8.30;7.40;;;10.50;99.90;;;;;;5034670;28;21545;-67
2021/10/25 09:30:52;;;;;;;9.27;7.53;;;10.30;99.90;;;;;;5031060;28;21241;-69
2021/10/25 09:33:22;;;;;;;11.33;8.20;;;10.30;99.90;;;;;;5044670;28;20241;-67
2021/10/25 09:36:08;;;;;;;10.87;8.23;;;10.20;99.90;;;;;;5045893;28;20235;-68
2021/10/25 09:38:49;;;;;;;9.60;7.80;;;10.30;99.90;;;;;;5045572;28;20850;-69
2021/10/25 09:50:09;;;;;;;11.00;8.87;;;10.60;99.90;;;;;;5046452;28;20324;-68
2021/10/25 09:52:39;;;;;;;12.53;8.27;;;10.50;99.90;;;;;;5042586;28;20233;-68
2021/10/25 09:55:16;;;;;;;11.60;8.50;;;10.60;99.90;;;;;;5043917;28;20239;-69
2021/10/25 09:57:52;;;;;;;10.30;8.10;;;10.60;99.90;;;;;;5044284;28;21504;-69
2021/10/25 10:00:38;;;;;;;8.83;7.70;;;10.50;99.90;;;;;;5024642;28;20239;-67
2021/10/25 10:03:13;;;;;;;10.40;8.13;;;10.50;99.90;;;;;;5044299;28;20313;-68
2021/10/25 10:06:00;;;;;;;9.43;7.97;;;10.50;99.90;;;;;;5046592;28;20320;-69
2021/10/25 10:08:35;;;;;;;9.23;8.13;;;10.50;99.90;;;;;;5045416;28;20234;-68
2021/10/25 10:11:18;;;;;;;9.13;8.00;;;10.60;99.90;;;;;;5043062;28;20347;-69
2021/10/25 10:13:46;;;;;;;10.33;7.70;;;10.80;99.90;;;;;;5045936;28;20237;-68
2021/10/25 10:16:19;;;;;;;9.50;7.23;;;10.80;99.90;;;;;;5045775;28;20607;-67
2021/10/25 10:18:53;;;;;;;9.77;7.70;;;11.10;99.90;;;;;;5046211;28;20607;-67
2021/10/25 10:21:26;;;;;;;11.97;8.10;;;11.00;99.90;;;;;;5044653;28;20243;-67
2021/10/25 10:24:04;;;;;;;10.20;7.90;;;11.00;99.90;;;;;;5046118;28;20381;-67
2021/10/25 10:26:36;;;;;;;9.57;7.67;;;11.00;99.90;;;;;;5045880;28;20760;-68
2021/10/25 10:29:11;;;;;;;10.60;7.87;;;11.00;99.90;;;;;;5045265;28;20730;-68
2021/10/25 10:32:01;;;;;;;9.53;7.47;;;11.30;99.90;;;;;;5056147;28;20235;-67
2021/10/25 10:35:03;;;;;;;9.70;7.70;;;11.70;99.90;;;;;;5025771;28;20236;-67
2021/10/25 10:38:03;;;;;;;9.10;7.27;;;11.80;99.90;;;;;;5020470;28;20713;-69
2021/10/25 10:40:43;;;;;;;8.80;7.83;;;11.60;99.90;;;;;;5027479;28;20294;-67
2021/10/25 10:43:32;;;;;;;10.33;8.10;;;11.50;99.90;;;;;;5026714;28;20286;-69
2021/10/25 10:46:13;;;;;;;9.17;7.17;;;11.40;99.90;;;;;;5025464;28;20251;-68
2021/10/25 10:48:45;;;;;;;9.57;8.03;;;11.30;99.90;;;;;;5026259;28;20362;-67
2021/10/25 10:51:15;;;;;;;9.37;7.67;;;11.10;99.90;;;;;;5043297;28;20314;-69
2021/10/25 10:53:54;;;;;;;10.60;7.57;;;11.10;99.90;;;;;;5047016;28;20298;-69
2021/10/25 10:56:26;;;;;;;10.00;7.97;;;11.10;99.90;;;;;;5045572;27;20720;-68
2021/10/25 10:59:17;;;;;;;9.13;7.63;;;11.10;99.90;;;;;;5045341;28;20252;-67
2021/10/25 11:01:54;;;;;;;9.00;7.43;;;11.10;99.90;;;;;;5042919;28;20235;-68
2021/10/25 11:04:30;;;;;;;10.10;7.63;;;11.00;99.90;;;;;;5046642;28;20872;-69
2021/10/25 11:07:02;;;;;;;8.07;7.20;;;11.00;99.90;;;;;;5045348;28;20248;-67
2021/10/25 11:09:31;;;;;;;10.33;7.90;;;11.00;99.90;;;;;;5044756;28;20778;-69
2021/10/25 11:12:10;;;;;;;10.20;7.30;;;10.90;99.90;;;;;;5043180;28;20251;-68
2021/10/25 11:14:46;;;;;;;9.23;8.30;;;10.90;99.90;;;;;;5046130;28;20355;-69
2021/10/25 11:17:20;;;;;;;13.37;8.30;;;11.20;99.90;;;;;;5045244;28;20240;-67
2021/10/25 11:19:49;;;;;;;10.27;8.27;;;11.20;99.90;;;;;;5043978;28;20326;-68
2021/10/25 11:22:30;;;;;;;9.77;7.97;;;11.10;99.90;;;;;;5043175;28;20595;-68
2021/10/25 11:24:58;;;;;;;8.77;7.50;;;11.10;99.90;;;;;;5046131;28;20235;-68
2021/10/25 11:27:32;;;;;;;9.87;7.73;;;11.00;99.90;;;;;;5045668;28;20246;-68
2021/10/25 11:30:13;;;;;;;11.13;8.33;;;11.00;99.90;;;;;;5044853;28;20317;-68
2021/10/25 11:32:44;;;;;;;10.63;7.83;;;11.10;99.90;;;;;;5042681;28;20974;-69
2021/10/25 11:35:18;;;;;;;10.10;7.60;;;11.10;99.90;;;;;;5045278;28;20358;-68
2021/10/25 11:37:51;;;;;;;9.13;7.73;;;11.10;99.90;;;;;;5043859;28;20233;-69
2021/10/25 11:40:23;;;;;;;10.60;8.07;;;11.20;99.90;;;;;;5043565;28;20761;-68
2021/10/25 11:42:51;;;;;;;8.87;7.93;;;11.20;99.90;;;;;;5041917;28;20643;-69
2021/10/25 11:45:24;;;;;;;9.20;7.47;;;11.30;99.90;;;;;;5045401;28;20237;-67
2021/10/25 11:47:54;;;;;;;8.93;7.80;;;11.40;99.90;;;;;;5044171;28;20231;-68
2021/10/25 11:50:24;;;;;;;9.00;7.50;;;11.40;99.90;;;;;;5044291;28;20243;-69
2021/10/25 11:52:58;;;;;;;9.57;7.90;;;11.50;99.90;;;;;;5041690;28;20244;-69
2021/10/25 11:55:27;;;;;;;10.27;7.60;;;11.40;99.90;;;;;;5043964;28;21006;-67
2021/10/25 11:57:59;;;;;;;10.80;7.70;;;11.40;99.90;;;;;;5044013;28;20246;-67
2021/10/25 12:00:30;;;;;;;8.43;7.10;;;11.50;99.90;;;;;;5043211;28;20397;-68
2021/10/25 12:03:22;;;;;;;8.17;7.40;;;11.60;99.90;;;;;;5059168;28;20336;-67
2021/10/25 12:05:52;;;;;;;11.30;7.80;;;11.70;99.90;;;;;;5028838;28;20811;-68
2021/10/25 12:08:21;;;;;;;8.77;7.87;;;11.70;99.90;;;;;;5025554;28;20248;-69
2021/10/25 12:10:52;;;;;;;9.43;7.87;;;11.70;99.90;;;;;;5027631;28;20235;-68
2021/10/25 12:13:20;;;;;;;9.40;7.70;;;11.70;99.90;;;;;;5027163;28;20620;-68
2021/10/25 12:15:54;;;;;;;13.37;8.40;;;11.60;99.90;;;;;;5028098;28;20432;-69
2021/10/25 12:18:25;;;;;;;11.67;7.77;;;11.70;99.90;;;;;;5028462;28;20241;-68
2021/10/25 12:20:54;;;;;;;7.87;7.07;;;11.80;99.90;;;;;;5026602;28;20328;-70
2021/10/25 12:23:29;;;;;;;9.87;7.27;;;11.80;99.90;;;;;;5033916;28;20635;-69
2021/10/25 12:25:59;;;;;;;11.47;7.43;;;11.80;99.90;;;;;;5030047;28;20809;-70
2021/10/25 12:28:28;;;;;;;8.53;7.63;;;11.80;99.90;;;;;;5032951;28;21130;-69
2021/10/25 12:31:08;;;;;;;10.13;7.70;;;11.90;99.90;;;;;;5026289;28;20236;-68
2021/10/25 12:33:38;;;;;;;11.07;8.57;;;11.90;99.90;;;;;;5033694;28;20232;-69
2021/10/25 12:36:12;;;;;;;9.27;8.23;;;11.90;99.90;;;;;;5039792;28;20252;-69
2021/10/25 12:38:43;;;;;;;10.83;7.97;;;11.90;99.90;;;;;;5053218;28;20243;-69
2021/10/25 12:41:11;;;;;;;10.07;7.43;;;11.90;99.90;;;;;;5056631;28;20704;-68
2021/10/25 12:43:41;;;;;;;10.20;7.67;;;11.80;99.90;;;;;;5054770;28;20237;-70
2021/10/25 12:46:17;;;;;;;8.00;7.23;;;11.80;99.90;;;;;;5043089;28;20296;-68
2021/10/25 12:48:48;;;;;;;11.57;7.50;;;11.70;99.90;;;;;;5035613;28;20265;-69
2021/10/25 12:51:18;;;;;;;10.37;7.50;;;11.80;99.90;;;;;;5042741;28;20787;-70
2021/10/25 12:53:48;;;;;;;9.30;7.43;;;11.90;99.90;;;;;;5033089;28;20714;-69
2021/10/25 12:56:25;;;;;;;10.60;7.70;;;11.90;99.90;;;;;;5043038;28;20234;-69
2021/10/25 12:59:00;;;;;;;9.47;7.20;;;11.90;99.90;;;;;;5039208;28;20267;-69
2021/10/25 13:01:29;;;;;;;9.70;7.30;;;12.00;99.90;;;;;;5041733;28;20234;-69
2021/10/25 13:03:59;;;;;;;9.00;7.17;;;12.00;99.90;;;;;;5045100;28;20264;-69
2021/10/25 13:06:29;;;;;;;9.83;7.53;;;12.00;99.90;;;;;;5050149;28;20259;-70
2021/10/25 13:09:06;;;;;;;11.47;7.40;;;12.00;99.90;;;;;;5054282;28;20782;-69
2021/10/25 13:11:34;;;;;;;9.53;7.93;;;12.00;99.90;;;;;;5052723;28;20324;-70
2021/10/25 13:14:02;;;;;;;10.27;6.73;;;12.00;99.90;;;;;;5047387;28;20234;-70
2021/10/25 13:16:42;;;;;;;8.97;7.13;;;12.00;99.90;;;;;;5047953;28;20239;-69
2021/10/25 13:19:11;;;;;;;11.00;8.00;;;12.00;99.90;;;;;;5048145;28;20339;-69
2021/10/25 13:21:39;;;;;;;9.37;7.70;;;12.00;99.90;;;;;;5051053;28;20243;-68
2021/10/25 13:24:09;;;;;;;8.80;7.43;;;12.10;99.90;;;;;;5054510;28;20265;-64
2021/10/25 13:26:44;;;;;;;9.50;7.50;;;12.10;99.90;;;;;;5042934;28;20233;-64
2021/10/25 13:29:12;;;;;;;10.20;7.70;;;12.10;99.90;;;;;;5051097;28;20244;-64
2021/10/25 13:31:42;;;;;;;10.63;7.83;;;12.00;99.90;;;;;;5050776;28;20593;-63
2021/10/25 13:34:10;;;;;;;10.50;7.43;;;11.90;99.90;;;;;;5054953;28;20251;-63
2021/10/25 13:36:40;;;;;;;9.60;7.83;;;11.80;99.90;;;;;;5054368;28;20668;-62
2021/10/25 13:39:13;;;;;;;11.27;8.47;;;11.70;99.90;;;;;;5051213;28;20241;-64
2021/10/25 13:41:41;;;;;;;11.70;8.90;;;11.70;99.90;;;;;;5054286;28;20329;-64
2021/10/25 13:44:10;;;;;;;11.87;8.93;;;11.50;99.90;;;;;;5062545;28;20645;-64
2021/10/25 13:46:39;;;;;;;10.03;8.57;;;11.50;99.90;;;;;;5058472;28;20607;-64
2021/10/25 13:49:09;;;;;;;12.73;9.60;;;11.40;99.90;;;;;;5054360;28;20233;-63
2021/10/25 13:51:37;;;;;;;12.23;8.97;;;11.30;99.90;;;;;;5058499;28;20263;-63
2021/10/25 13:54:06;;;;;;;9.47;8.07;;;11.30;99.90;;;;;;5050211;28;20264;-63
2021/10/25 13:56:36;;;;;;;13.93;8.70;;;11.20;99.90;;;;;;5058667;28;20730;-64
2021/10/25 13:59:06;;;;;;;9.50;7.90;;;11.20;99.90;;;;;;5059437;28;20243;-63
2021/10/25 14:01:34;;;;;;;10.30;9.00;;;11.20;99.90;;;;;;5055279;28;20244;-63
2021/10/25 14:04:03;;;;;;;11.70;8.70;;;11.20;99.90;;;;;;5064922;28;20245;-63
2021/10/25 14:06:33;;;;;;;11.77;8.27;;;11.30;99.90;;;;;;5058922;28;20675;-64
2021/10/25 14:09:02;;;;;;;11.97;8.90;;;11.30;99.90;;;;;;5064523;28;20273;-64
2021/10/25 14:11:36;;;;;;;9.50;8.47;;;11.30;99.90;;;;;;5033384;28;20264;-63
2021/10/25 14:14:11;;;;;;;11.00;8.70;;;11.30;99.90;;;;;;5042267;28;20319;-63
2021/10/25 14:16:49;;;;;;;20.63;15.30;;;11.20;99.90;;;;;;5042865;28;20294;-63
2021/10/25 14:19:18;;;;;;;14.90;12.60;;;11.20;99.90;;;;;;5032647;28;20303;-63
2021/10/25 14:21:50;;;;;;;13.57;11.17;;;11.20;99.90;;;;;;5039683;28;20236;-63
2021/10/25 14:24:19;;;;;;;12.03;10.03;;;11.20;99.90;;;;;;5034753;28;20745;-63
2021/10/25 14:26:47;;;;;;;10.13;9.13;;;11.20;99.90;;;;;;5038078;28;20351;-63
2021/10/25 14:29:16;;;;;;;11.33;9.57;;;11.20;99.90;;;;;;5027076;28;20312;-64
2021/10/25 14:31:47;;;;;;;10.90;9.30;;;11.20;99.90;;;;;;5045218;28;20294;-64
2021/10/25 14:34:17;;;;;;;11.90;9.17;;;11.20;99.90;;;;;;5029496;28;20701;-64
2021/10/25 14:36:49;;;;;;;9.83;8.60;;;11.20;99.90;;;;;;5039756;28;20831;-63
2021/10/25 14:39:23;;;;;;;15.40;9.60;;;11.20;99.90;;;;;;5027925;28;20330;-64
2021/10/25 14:41:59;;;;;;;11.50;8.70;;;11.20;99.90;;;;;;5038082;28;20273;-63